Terminal Aerodrome Forecast
Issued by NWS Charleston, SC

Home | Current Version | Previous Version | Text Only | Print | Product List | Glossary On
Versions: 1 2 3 4 5 6 7 8 9 10 11 12 13 14 15 16
000
FTUS42 KCHS 190500
TAFCHS
TAF
KCHS 190534Z 1906/2006 07012G19KT 5SM RA BKN007 OVC025
      TEMPO 1906/1908 2SM +RA BR
     FM191100 02007KT P6SM VCSH OVC005
     FM191700 02010KT P6SM SCT008 OVC015
     FM200000 01012KT 6SM -SHRA BKN009 OVC015=

USA.gov is the U.S. government's official web portal to all federal, state and local government web resources and services.